Airfield :







YOU CAN JOIN US ON...

 
LOGIN :

Register | Disclaimer

   EN    FR    IT 

 









Legend :    VFR   Marginal VFR   IFR   Intensive IFR   Very Intensive IFR
Visi :
Ceiling :
>= 8 km
>= 3000ft
5 to 8 km
1000 to 3000 ft
1500m to 5 km
500 to 1000 ft
800 to 1500m
200 to 500 ft
< 800m
< 200 ft
Symbols :   Thunderstorms  Fog  Heavy snow  Heavy precipitations  Wind > 20 kt






- Airport Elevation : 48 ft
- IATA code : REK


BIRK - Reykjavik

CURRENT METAR :
  • 060600Z 09017KT 6000 -RA SCT017 OVC025 06/04 Q0959

EXPIRED METARs :
  • 060500Z 09018KT 4000 -RA FEW015 SCT018 OVC026 06/04 Q0959
  • 060400Z 08020KT 6000 -RA BKN029 06/03 Q0960

TAF TAF BIRK
Valid from the 06 at 06:00 until the 07 at 06:00 UTC


060454Z 0606/0706 13015KT 9999 -SHRA SCT020 BKN030 TX08/0606Z TNM01/0703Z
BECMG 0612/0614 21025G37KT -SHRASN
TEMPO 0615/0620 3000 SHRASN BKN012CB
TEMPO 0620/0706 1000 SHSN BKN008CB
BECMG 0622/0700 21018KT



MET'MAP, your aeronautical weather chart ! - Copyright ORBIFLY December 2007 - Disclaimer

ORBIFLY MET'MAP TEAM :

Programming & Development : Alexandra Zaïnal
Concept & original design : Baudouin d'Aumeries
Assistance for programming : Marc-Olivier Méhu
Technical & hardware support : Manuel Goepfert

Contact : metmap@orbifly.com




SOURCES & CREDITS :

   NOAA